createdAt,value
2017-10-07T00:01:05.115Z,75.66
2017-10-07T00:03:36.295Z,75.28
2017-10-07T00:06:07.385Z,74.95
2017-10-07T00:08:38.766Z,74.71
2017-10-07T00:11:09.866Z,74.57
2017-10-07T00:13:41.441Z,74.51
2017-10-07T00:16:12.540Z,74.37
2017-10-07T00:18:43.598Z,74.26
2017-10-07T00:21:15.102Z,74.13
2017-10-07T00:23:46.224Z,73.90
2017-10-07T00:26:17.311Z,73.74
2017-10-07T00:28:48.785Z,73.62
2017-10-07T00:31:19.907Z,73.51
2017-10-07T00:33:51.008Z,73.50
2017-10-07T00:36:23.690Z,73.57
2017-10-07T00:38:54.935Z,73.68
2017-10-07T00:41:26.705Z,73.82
2017-10-07T00:43:58.087Z,73.89
2017-10-07T00:46:29.158Z,73.82
2017-10-07T00:49:00.900Z,73.67
2017-10-07T00:51:32.097Z,73.67
2017-10-07T00:54:04.163Z,73.59
2017-10-07T00:56:35.647Z,73.51
2017-10-07T00:59:06.779Z,73.45
2017-10-07T01:01:37.956Z,73.41
2017-10-07T01:04:09.437Z,73.49
2017-10-07T01:06:40.531Z,73.76
2017-10-07T01:09:12.036Z,73.89
2017-10-07T01:11:43.843Z,74.05
2017-10-07T01:14:15.265Z,74.10
2017-10-07T01:16:46.312Z,74.01
2017-10-07T01:19:17.952Z,74.03
2017-10-07T01:21:49.162Z,74.15
2017-10-07T01:24:20.465Z,74.17
2017-10-07T01:26:52.956Z,74.29
2017-10-07T01:29:26.625Z,74.37
2017-10-07T01:31:58.185Z,74.44
2017-10-07T01:34:30.877Z,74.42
2017-10-07T01:37:02.292Z,74.30
2017-10-07T01:39:33.417Z,74.18
2017-10-07T01:42:09.527Z,74.21
2017-10-07T01:44:40.930Z,74.07
2017-10-07T01:47:12.515Z,74.03
2017-10-07T01:49:43.861Z,74.20
2017-10-07T01:52:15.954Z,74.35
2017-10-07T01:54:47.663Z,74.43
2017-10-07T01:57:18.752Z,74.46
2017-10-07T01:59:49.833Z,74.51
2017-10-07T02:02:21.808Z,74.55
2017-10-07T02:04:52.941Z,74.48
2017-10-07T02:07:26.008Z,74.32
2017-10-07T02:09:57.085Z,74.37
2017-10-07T02:12:28.357Z,74.38
2017-10-07T02:14:59.946Z,74.60
2017-10-07T02:17:31.027Z,74.63
2017-10-07T02:20:03.771Z,74.48
2017-10-07T02:22:35.129Z,74.48
2017-10-07T02:25:06.201Z,74.35
2017-10-07T02:27:37.271Z,74.37
2017-10-07T02:30:08.792Z,74.47
2017-10-07T02:32:39.858Z,74.28
2017-10-07T02:35:11.050Z,74.16
2017-10-07T02:37:42.618Z,74.24
2017-10-07T02:40:13.755Z,74.27
2017-10-07T02:42:44.820Z,74.35
2017-10-07T02:45:16.269Z,74.36
2017-10-07T02:47:47.328Z,74.51
2017-10-07T02:50:18.479Z,74.64
2017-10-07T02:52:49.904Z,74.84
2017-10-07T02:55:21.191Z,74.91
2017-10-07T02:57:52.271Z,74.99
2017-10-07T03:00:25.266Z,74.96
2017-10-07T03:02:56.337Z,75.00
2017-10-07T03:05:28.194Z,74.73
2017-10-07T03:07:59.379Z,74.69
2017-10-07T03:10:30.582Z,74.78
2017-10-07T03:13:02.303Z,75.01
2017-10-07T03:15:33.416Z,75.19
2017-10-07T03:18:06.501Z,75.28
2017-10-07T03:20:37.922Z,75.35
2017-10-07T03:23:18.183Z,75.45
2017-10-07T03:25:50.297Z,75.52
2017-10-07T03:28:21.779Z,75.54
2017-10-07T03:30:52.926Z,75.40
2017-10-07T03:33:25.770Z,75.38
2017-10-07T03:35:56.887Z,75.38
2017-10-07T03:38:28.457Z,75.39
2017-10-07T03:41:00.080Z,75.35
2017-10-07T03:43:31.267Z,75.32
2017-10-07T03:46:03.513Z,75.32
2017-10-07T03:48:34.810Z,75.26
2017-10-07T03:51:06.002Z,75.22
2017-10-07T03:53:37.465Z,74.97
2017-10-07T03:56:08.585Z,74.83
2017-10-07T03:58:39.716Z,74.68
2017-10-07T04:01:11.131Z,74.44
2017-10-07T04:03:42.247Z,74.42
2017-10-07T04:06:13.318Z,74.44
2017-10-07T04:08:44.722Z,74.44
2017-10-07T04:11:15.791Z,74.66
2017-10-07T04:13:46.898Z,75.02
2017-10-07T04:16:18.297Z,75.27
2017-10-07T04:18:49.397Z,75.41
2017-10-07T04:21:20.491Z,75.60
2017-10-07T04:23:51.607Z,75.77
2017-10-07T04:26:23.854Z,75.89
2017-10-07T04:28:55.079Z,76.11
2017-10-07T04:31:27.718Z,76.27
2017-10-07T04:33:58.812Z,76.32
2017-10-07T04:36:29.906Z,76.39
2017-10-07T04:39:01.218Z,76.55
2017-10-07T04:41:32.584Z,76.81
2017-10-07T04:44:04.520Z,76.98
2017-10-07T04:46:35.675Z,77.19
2017-10-07T04:49:06.806Z,77.66
2017-10-07T04:51:38.212Z,78.18
2017-10-07T04:54:09.477Z,78.76
2017-10-07T04:56:40.827Z,79.42
2017-10-07T04:59:11.957Z,80.01
2017-10-07T05:01:43.080Z,80.40
2017-10-07T05:04:14.463Z,80.74
2017-10-07T05:06:45.545Z,81.08
2017-10-07T05:09:16.752Z,81.43
2017-10-07T05:11:48.631Z,81.91
2017-10-07T05:14:19.712Z,82.21
2017-10-07T05:16:50.826Z,82.44
2017-10-07T05:19:22.962Z,82.67
2017-10-07T05:21:54.381Z,82.87
2017-10-07T05:24:27.495Z,82.97
2017-10-07T05:26:58.714Z,83.25
2017-10-07T05:29:29.815Z,83.34
2017-10-07T05:32:03.134Z,83.55
2017-10-07T05:34:34.243Z,83.63
2017-10-07T05:37:05.323Z,83.72
2017-10-07T05:39:36.684Z,83.76
2017-10-07T05:42:08.658Z,84.05
2017-10-07T05:44:39.723Z,84.11
2017-10-07T05:47:11.130Z,84.09
2017-10-07T05:49:42.207Z,84.06
2017-10-07T05:52:13.449Z,84.02
2017-10-07T05:54:44.903Z,83.95
2017-10-07T05:57:16.087Z,83.92
2017-10-07T05:59:47.199Z,83.86
2017-10-07T06:02:18.607Z,83.75
2017-10-07T06:04:49.710Z,83.64
2017-10-07T06:07:20.990Z,83.61
2017-10-07T06:09:52.420Z,83.48
2017-10-07T06:12:24.564Z,83.24
2017-10-07T06:14:55.955Z,82.98
2017-10-07T06:17:27.944Z,82.55
2017-10-07T06:19:59.196Z,82.07
2017-10-07T06:22:30.895Z,81.74
2017-10-07T06:25:02.270Z,81.44
2017-10-07T06:27:33.368Z,81.26
2017-10-07T06:30:05.882Z,80.92
2017-10-07T06:32:37.012Z,80.15
2017-10-07T06:35:08.365Z,79.43
2017-10-07T06:37:39.512Z,78.79
2017-10-07T06:40:10.651Z,77.93
2017-10-07T06:42:42.054Z,77.70
2017-10-07T06:45:13.212Z,77.36
2017-10-07T06:47:44.339Z,77.37
2017-10-07T06:50:15.782Z,77.28
2017-10-07T06:52:47.054Z,76.89
2017-10-07T06:55:18.156Z,76.27
2017-10-07T06:57:49.558Z,76.18
2017-10-07T07:00:20.665Z,76.18
2017-10-07T07:02:52.702Z,76.10
2017-10-07T07:05:24.961Z,76.00
2017-10-07T07:07:56.131Z,76.28
2017-10-07T07:10:29.098Z,76.16
2017-10-07T07:13:00.186Z,76.00
2017-10-07T07:15:31.779Z,75.74
2017-10-07T07:18:04.235Z,75.55
2017-10-07T07:20:35.794Z,75.37
2017-10-07T07:23:10.209Z,74.77
2017-10-07T07:25:59.975Z,73.97
2017-10-07T07:28:41.414Z,73.95
2017-10-07T07:31:13.669Z,73.69
2017-10-07T07:33:45.362Z,73.46
2017-10-07T07:36:24.058Z,73.22
2017-10-07T07:39:15.560Z,72.49
2017-10-07T07:41:56.370Z,71.01
2017-10-07T07:44:29.869Z,70.25
2017-10-07T07:47:05.491Z,68.83
2017-10-07T07:49:36.983Z,67.52
2017-10-07T07:52:11.701Z,61.51
2017-10-07T07:54:48.935Z,55.45
2017-10-07T07:57:28.882Z,50.67
2017-10-07T08:00:00.133Z,47.09
2017-10-07T08:05:46.861Z,41.97
2017-10-07T08:08:18.987Z,40.21
2017-10-07T08:12:20.796Z,39.17
2017-10-07T08:14:52.575Z,36.30
2017-10-07T08:21:11.786Z,34.79
2017-10-07T08:23:56.054Z,36.86
2017-10-07T08:26:28.538Z,41.85
2017-10-07T08:28:59.655Z,46.72
2017-10-07T08:31:31.255Z,48.78
2017-10-07T08:34:06.327Z,50.72
2017-10-07T08:36:40.544Z,52.02
2017-10-07T08:39:12.755Z,53.18
2017-10-07T08:41:45.024Z,52.11
2017-10-07T08:44:20.437Z,50.79
2017-10-07T08:46:52.213Z,50.21
2017-10-07T08:49:25.090Z,51.16
2017-10-07T08:51:57.353Z,50.98
2017-10-07T08:54:29.178Z,52.44
2017-10-07T08:57:00.359Z,52.73
2017-10-07T08:59:32.755Z,53.47
2017-10-07T09:02:04.780Z,54.44
2017-10-07T09:04:35.881Z,55.82
2017-10-07T09:07:07.266Z,56.33
2017-10-07T09:09:38.401Z,56.38
2017-10-07T09:12:09.563Z,56.35
2017-10-07T09:14:40.675Z,56.32
2017-10-07T09:17:11.758Z,56.38
2017-10-07T09:19:42.836Z,56.37
2017-10-07T09:22:14.013Z,56.15
2017-10-07T09:24:45.388Z,55.47
2017-10-07T09:27:16.471Z,55.14
2017-10-07T09:29:47.638Z,54.98
2017-10-07T09:32:19.055Z,53.69
2017-10-07T09:34:50.452Z,52.07
2017-10-07T09:37:21.687Z,52.31
2017-10-07T09:39:52.885Z,52.47
2017-10-07T09:42:24.676Z,52.32
2017-10-07T09:44:56.302Z,52.96
2017-10-07T09:47:28.262Z,52.40
2017-10-07T09:49:59.320Z,51.33
2017-10-07T09:52:30.521Z,51.49
2017-10-07T09:55:01.738Z,51.63
2017-10-07T09:57:33.157Z,53.72
2017-10-07T10:00:05.346Z,55.44
2017-10-07T10:02:36.399Z,56.36
2017-10-07T10:05:07.655Z,57.16
2017-10-07T10:07:38.882Z,56.93
2017-10-07T10:10:10.372Z,56.27
2017-10-07T10:12:41.591Z,56.18
2017-10-07T10:15:12.641Z,55.43
2017-10-07T10:17:44.092Z,54.33
2017-10-07T10:20:15.160Z,53.80
2017-10-07T10:22:48.207Z,53.57
2017-10-07T10:25:19.380Z,53.33
2017-10-07T10:27:55.832Z,53.31
2017-10-07T10:30:27.939Z,52.67
2017-10-07T10:33:00.395Z,51.68
2017-10-07T10:35:33.076Z,47.66
2017-10-07T10:38:06.825Z,46.52
2017-10-07T10:40:39.481Z,42.24
2017-10-07T10:45:42.693Z,42.89
2017-10-07T10:48:14.205Z,45.30
2017-10-07T10:50:49.872Z,46.54
2017-10-07T10:53:25.543Z,47.38
2017-10-07T10:55:56.988Z,48.08
2017-10-07T10:58:31.327Z,48.66
2017-10-07T11:01:25.583Z,49.61
2017-10-07T11:03:57.698Z,50.21
2017-10-07T11:06:35.302Z,50.30
2017-10-07T11:09:10.071Z,49.49
2017-10-07T11:11:42.554Z,48.48
2017-10-07T11:14:15.401Z,47.26
2017-10-07T11:16:46.944Z,46.00
2017-10-07T11:19:20.337Z,44.87
2017-10-07T11:21:57.346Z,41.12
2017-10-07T11:24:32.497Z,40.69
2017-10-07T11:27:04.951Z,35.39
2017-10-07T11:29:36.362Z,28.60
2017-10-07T11:32:07.450Z,24.57
2017-10-07T11:34:39.662Z,23.25
2017-10-07T11:37:11.478Z,24.12
2017-10-07T11:39:43.132Z,24.57
2017-10-07T11:42:14.331Z,26.66
2017-10-07T11:44:49.450Z,24.23
2017-10-07T11:47:21.011Z,20.33
2017-10-07T11:49:52.274Z,21.12
2017-10-07T11:52:24.264Z,25.41
2017-10-07T11:54:55.569Z,28.16
2017-10-07T11:57:28.723Z,23.16
2017-10-07T12:00:00.948Z,24.83
2017-10-07T12:02:32.719Z,26.26
2017-10-07T12:05:04.708Z,27.71
2017-10-07T12:07:37.041Z,31.09
2017-10-07T12:10:09.125Z,33.88
2017-10-07T12:12:41.331Z,36.22
2017-10-07T12:15:12.784Z,37.93
2017-10-07T12:17:44.107Z,38.96
2017-10-07T12:20:15.198Z,40.14
2017-10-07T12:22:46.363Z,40.77
2017-10-07T12:25:17.582Z,41.25
2017-10-07T12:27:49.148Z,42.31
2017-10-07T12:30:20.513Z,43.00
2017-10-07T12:32:53.320Z,43.83
2017-10-07T12:38:31.779Z,45.75
2017-10-07T12:41:03.781Z,46.37
2017-10-07T12:43:35.012Z,46.59
2017-10-07T12:46:06.529Z,46.90
2017-10-07T12:48:38.362Z,47.01
2017-10-07T12:51:09.950Z,47.16
2017-10-07T12:53:43.779Z,47.33
2017-10-07T12:56:15.700Z,47.54
2017-10-07T12:58:47.656Z,47.86
2017-10-07T13:01:19.439Z,47.76
2017-10-07T13:03:51.506Z,47.75
2017-10-07T13:06:24.674Z,46.70
2017-10-07T13:08:56.113Z,43.73
2017-10-07T13:11:28.141Z,40.49
2017-10-07T13:13:59.452Z,41.21
2017-10-07T13:16:30.686Z,42.82
2017-10-07T13:19:03.736Z,43.50
2017-10-07T13:21:35.124Z,44.25
2017-10-07T13:24:07.131Z,45.37
2017-10-07T13:26:40.344Z,45.92
2017-10-07T13:29:11.986Z,45.93
2017-10-07T13:31:46.232Z,46.74
2017-10-07T13:34:18.744Z,46.40
2017-10-07T13:36:51.658Z,47.11
2017-10-07T13:39:24.146Z,47.72
2017-10-07T13:41:57.380Z,48.03
2017-10-07T13:44:28.921Z,48.70
2017-10-07T13:47:00.771Z,49.49
2017-10-07T13:49:33.785Z,50.03
2017-10-07T13:52:07.023Z,50.17
2017-10-07T13:54:41.504Z,50.25
2017-10-07T13:57:12.928Z,51.00
2017-10-07T13:59:46.071Z,51.48
2017-10-07T14:02:20.705Z,51.45
2017-10-07T14:04:52.320Z,51.71
2017-10-07T14:07:23.658Z,51.67
2017-10-07T14:09:56.308Z,51.80
2017-10-07T14:12:27.829Z,51.25
2017-10-07T14:14:59.660Z,51.09
2017-10-07T14:17:31.276Z,50.88
2017-10-07T14:20:04.656Z,50.90
2017-10-07T14:22:36.289Z,51.09
2017-10-07T14:25:07.800Z,51.07
2017-10-07T14:27:42.323Z,51.22
2017-10-07T14:30:13.785Z,51.54
2017-10-07T14:32:44.829Z,51.76
2017-10-07T14:35:25.786Z,52.20
2017-10-07T14:38:07.917Z,52.20
2017-10-07T14:40:47.820Z,53.02
2017-10-07T14:43:37.270Z,54.05
2017-10-07T14:46:09.762Z,54.27
2017-10-07T14:48:42.716Z,54.43
2017-10-07T14:51:14.039Z,54.73
2017-10-07T14:53:45.114Z,55.31
2017-10-07T14:56:16.329Z,55.47
2017-10-07T14:58:51.210Z,55.90
2017-10-07T15:01:26.589Z,56.02
2017-10-07T15:04:17.455Z,56.16
2017-10-07T15:06:48.612Z,55.81
2017-10-07T15:12:19.436Z,55.87
2017-10-07T15:14:50.553Z,55.47
2017-10-07T15:17:26.144Z,54.84
2017-10-07T15:19:58.065Z,55.51
2017-10-07T15:22:30.534Z,54.56
2017-10-07T15:25:06.377Z,54.70
2017-10-07T15:27:38.822Z,53.83
2017-10-07T15:30:11.839Z,53.78
2017-10-07T15:32:43.218Z,53.97
2017-10-07T15:35:14.339Z,53.93
2017-10-07T15:37:45.420Z,53.66
2017-10-07T15:43:25.466Z,55.16
2017-10-07T15:46:09.535Z,55.30
2017-10-07T15:48:46.150Z,55.32
2017-10-07T15:51:19.074Z,55.28
2017-10-07T15:53:51.638Z,55.20
2017-10-07T15:56:29.695Z,54.93
2017-10-07T15:59:02.870Z,54.99
2017-10-07T16:01:34.237Z,55.62
2017-10-07T16:04:14.082Z,55.85
2017-10-07T16:06:45.631Z,56.34
2017-10-07T16:09:17.279Z,56.38
2017-10-07T16:11:48.725Z,56.06
2017-10-07T16:14:26.491Z,56.38
2017-10-07T16:17:00.074Z,56.72
2017-10-07T16:19:35.576Z,56.80
2017-10-07T16:22:08.512Z,56.63
2017-10-07T16:24:40.127Z,56.55
2017-10-07T16:27:12.571Z,56.25
2017-10-07T16:29:46.522Z,56.43
2017-10-07T16:32:19.426Z,56.48
2017-10-07T16:34:51.633Z,56.60
2017-10-07T16:37:31.863Z,56.61
2017-10-07T16:40:08.735Z,56.72
2017-10-07T16:42:40.506Z,56.79
2017-10-07T16:45:12.277Z,57.01
2017-10-07T16:47:44.371Z,56.99
2017-10-07T16:50:17.980Z,57.16
2017-10-07T16:52:49.992Z,57.29
2017-10-07T16:58:26.875Z,57.80
2017-10-07T17:00:58.635Z,57.95
2017-10-07T17:03:41.025Z,58.04
2017-10-07T17:12:36.572Z,58.68
2017-10-07T17:18:26.500Z,59.06
2017-10-07T17:20:59.681Z,59.17
2017-10-07T17:23:31.420Z,59.40
2017-10-07T17:26:03.625Z,59.37
2017-10-07T17:28:34.828Z,59.27
2017-10-07T17:31:08.189Z,59.51
2017-10-07T17:33:42.346Z,59.66
2017-10-07T17:36:16.399Z,59.65
2017-10-07T17:38:49.643Z,59.73
2017-10-07T17:41:20.985Z,59.83
2017-10-07T17:46:36.878Z,59.97
2017-10-07T17:49:09.797Z,60.17
2017-10-07T17:54:46.578Z,60.16
2017-10-07T17:57:36.870Z,60.22
2017-10-07T18:00:09.884Z,60.09
2017-10-07T18:02:51.061Z,60.04
2017-10-07T18:05:26.589Z,59.80
2017-10-07T18:08:03.623Z,59.66
2017-10-07T18:10:41.271Z,59.59
2017-10-07T18:13:14.347Z,59.64
2017-10-07T18:15:47.869Z,59.31
2017-10-07T18:18:21.395Z,59.54
2017-10-07T18:20:56.571Z,59.60
2017-10-07T18:23:35.645Z,59.64
2017-10-07T18:26:08.553Z,59.65
2017-10-07T18:28:40.250Z,59.53
2017-10-07T18:31:12.124Z,59.34
2017-10-07T18:33:44.627Z,59.07
2017-10-07T18:36:15.772Z,58.96
2017-10-07T18:38:47.191Z,58.96
2017-10-07T18:41:18.346Z,59.03
2017-10-07T18:43:51.278Z,58.83
2017-10-07T18:46:23.056Z,58.99
2017-10-07T18:48:59.581Z,59.10
2017-10-07T18:51:31.245Z,59.11
2017-10-07T18:54:03.775Z,59.07
2017-10-07T18:56:36.758Z,58.93
2017-10-07T18:59:08.633Z,59.30
2017-10-07T19:01:41.429Z,59.87
2017-10-07T19:04:12.715Z,61.05
2017-10-07T19:06:46.783Z,61.88
2017-10-07T19:09:21.047Z,62.46
2017-10-07T19:11:58.310Z,63.30
2017-10-07T19:14:34.295Z,64.55
2017-10-07T19:17:18.421Z,65.94
2017-10-07T19:19:51.974Z,66.49
2017-10-07T19:22:23.481Z,67.16
2017-10-07T19:24:54.859Z,67.55
2017-10-07T19:27:26.165Z,68.75
2017-10-07T19:29:58.414Z,69.40
2017-10-07T19:32:29.582Z,70.10
2017-10-07T19:35:01.203Z,70.86
2017-10-07T19:37:33.934Z,71.67
2017-10-07T19:40:07.469Z,72.23
2017-10-07T19:49:33.237Z,72.28
2017-10-07T19:55:04.032Z,72.69
2017-10-07T19:57:41.286Z,72.57
2017-10-07T20:00:15.625Z,72.49
2017-10-07T20:02:48.357Z,71.38
2017-10-07T20:05:20.736Z,70.98
2017-10-07T20:07:52.945Z,69.72
2017-10-07T20:10:26.107Z,69.70
2017-10-07T20:13:06.624Z,69.23
2017-10-07T20:15:41.346Z,69.63
2017-10-07T20:18:14.412Z,69.94
2017-10-07T20:20:50.434Z,70.24
2017-10-07T20:23:28.597Z,70.07
2017-10-07T20:26:04.511Z,69.58
2017-10-07T20:28:51.890Z,69.46
2017-10-07T20:31:31.047Z,69.87
2017-10-07T20:34:20.229Z,71.07
2017-10-07T20:37:01.896Z,71.93
2017-10-07T20:39:44.234Z,71.76
2017-10-07T20:42:18.801Z,71.04
2017-10-07T20:44:56.237Z,71.56
2017-10-07T20:47:29.407Z,72.00
2017-10-07T20:50:06.096Z,72.52
2017-10-07T20:52:44.277Z,72.84
2017-10-07T20:55:20.104Z,73.26
2017-10-07T20:57:53.955Z,73.74
2017-10-07T21:00:28.527Z,74.16
2017-10-07T21:03:01.142Z,74.07
2017-10-07T21:05:34.422Z,73.91
2017-10-07T21:08:07.060Z,73.66
2017-10-07T21:10:41.820Z,73.37
2017-10-07T21:13:13.884Z,73.07
2017-10-07T21:15:46.926Z,73.07
2017-10-07T21:18:19.337Z,72.58
2017-10-07T21:20:58.125Z,71.12
2017-10-07T21:23:29.604Z,70.36
2017-10-07T21:26:01.221Z,69.32
2017-10-07T21:28:33.171Z,68.60
2017-10-07T21:31:06.585Z,67.82
2017-10-07T21:33:43.067Z,67.67
2017-10-07T21:36:14.438Z,68.31
2017-10-07T21:38:46.351Z,68.17
2017-10-07T21:41:17.555Z,68.51
2017-10-07T21:43:48.743Z,67.98
2017-10-07T21:46:20.827Z,68.17
2017-10-07T21:48:51.939Z,68.20
2017-10-07T21:51:24.147Z,68.35
2017-10-07T21:53:55.177Z,68.22
2017-10-07T21:56:27.453Z,68.49
2017-10-07T21:58:58.565Z,69.07
2017-10-07T22:01:30.047Z,69.60
2017-10-07T22:04:03.761Z,70.17
2017-10-07T22:06:34.834Z,70.54
2017-10-07T22:09:06.279Z,71.14
2017-10-07T22:11:45.838Z,71.30
2017-10-07T22:14:29.314Z,71.58
2017-10-07T22:17:01.314Z,71.67
2017-10-07T22:19:33.197Z,71.76
2017-10-07T22:22:11.752Z,71.77
2017-10-07T22:24:42.913Z,72.10
2017-10-07T22:27:14.164Z,72.03
2017-10-07T22:29:45.221Z,72.24
2017-10-07T22:32:17.251Z,72.38
2017-10-07T22:34:48.342Z,72.19
2017-10-07T22:37:19.715Z,72.28
2017-10-07T22:39:50.848Z,72.42
2017-10-07T22:42:22.316Z,72.32
2017-10-07T22:44:53.752Z,72.44
2017-10-07T22:47:27.359Z,72.38
2017-10-07T22:49:58.431Z,72.29
2017-10-07T22:52:30.326Z,72.30
2017-10-07T22:55:01.808Z,72.52
2017-10-07T22:57:32.864Z,72.31
2017-10-07T23:00:08.479Z,72.49
2017-10-07T23:02:39.520Z,72.58
2017-10-07T23:05:10.606Z,72.75
2017-10-07T23:07:41.956Z,72.71
2017-10-07T23:10:15.158Z,72.95
2017-10-07T23:12:46.183Z,72.78
2017-10-07T23:15:17.504Z,72.82
2017-10-07T23:17:48.595Z,72.75
2017-10-07T23:20:21.686Z,72.95
2017-10-07T23:22:53.195Z,72.91
2017-10-07T23:25:25.125Z,72.99
2017-10-07T23:27:56.138Z,72.87
2017-10-07T23:30:28.908Z,73.15
2017-10-07T23:32:59.948Z,73.07
2017-10-07T23:35:30.993Z,73.13
2017-10-07T23:38:03.332Z,73.04
2017-10-07T23:40:34.529Z,73.20
2017-10-07T23:43:05.546Z,73.22
2017-10-07T23:45:37.392Z,73.50
2017-10-07T23:48:12.821Z,73.53
2017-10-07T23:50:43.865Z,73.71
2017-10-07T23:53:14.884Z,73.84
2017-10-07T23:55:45.926Z,73.94
2017-10-07T23:58:17.003Z,73.99
